• Join FlightAware (Why Join?)
  • Login
  • US Flag 
09:41AM EDT


 

Airport Tracker/Info


-or-


 

Live Flight TrackerFlight Track Log ✈ UAL4305 ✈ 07-Apr-2013 ✈ KCRP - KIAH

Flight Track Log - Related Links

Times and Time Zones

All times are in EDT time to prevent confusion due to time zone crossing. See the UAL4305 flight status page for this flight to view local times or setup timezone preferences in your user account.

Time Position Orientation Groundspeed Altitude Reporting Facility
EDT Latitude Longitude Course Direction KTS MPH feet Rate Location/Type
08:09PM 27.7628 -97.4992 24° Northeast 116 133 900  Level Houston Center
08:09PM 27.7453 -97.4733 127° Southeast 154 177 2,600 2,220 Climbing Houston Center
08:10PM 27.7722 -97.4400 48° Northeast 253 291 4,300 2,220 Climbing Houston Center
08:11PM 27.8506 -97.4183 14° North 286 329 6,900 2,820 Climbing Houston Center
08:12PM 27.9278 -97.4194 24° Northeast  Level FlightAware Approximate
08:12PM 27.9425 -97.3878 16° North 289 333 10,200  Level Houston Center
08:13PM 27.9843 -97.3963 19° North  Level FlightAware Approximate
08:13PM 28.0286 -97.3581 17° North 320 368 11,000  Level Houston Center
08:14PM 28.0402 -97.3716 24° Northeast  Level FlightAware Approximate
08:15PM 28.1250 -97.3231 18° North 361 415 13,000  Level Houston Center
08:16PM 28.2211 -97.2822 21° North 368 423 14,700 1,560 Climbing Houston Center
08:17PM 28.3203 -97.2356 23° Northeast 384 442 16,300 1,020 Climbing Houston Center
08:18PM 28.4111 -97.1578 37° Northeast 409 471 16,900 300 Climbing Houston Center
08:19PM 28.5256 -97.0578 38° Northeast 430 495 17,000  Climbing Houston Center
08:20PM 28.6200 -96.9772 37° Northeast 428 493 17,000  Level Houston Center
08:21PM 28.7153 -96.8944 37° Northeast 430 495 17,000  Level Houston Center
08:22PM 28.8106 -96.8108 38° Northeast 433 498 17,000  Level Houston Center
08:23PM 28.9042 -96.7292 37° Northeast 428 493 17,000  Level Houston Center
08:24PM 29.0192 -96.6306 37° Northeast 433 498 17,000  Level Houston Center
08:25PM 29.1125 -96.5483 38° Northeast 429 494 17,000  Level Houston Center
08:26PM 29.1864 -96.4842 37° Northeast 434 499 17,100 -120 Climbing Houston Center
08:26PM 29.2067 -96.4653 39° Northeast 431 496 16,900 -1,620 Descending Houston Center
08:27PM 29.3056 -96.3803 37° Northeast 419 482 15,000 -1,800 Descending Houston Center
08:28PM 29.3894 -96.3056 38° Northeast 413 475 13,200 -1,800 Descending Houston Center
08:29PM 29.4761 -96.2300 37° Northeast 397 457 11,300 -1,560 Descending Houston Center
08:30PM 29.5617 -96.1336 44° Northeast 331 381 10,000 -660 Descending Houston Center
08:31PM 29.6042 -96.0528 59° Northeast 322 371 10,000  Level Houston Center
08:32PM 29.6456 -95.9733 59° Northeast 303 349 10,000 -720 Level Houston Center
08:33PM 29.7217 -95.9261 28° Northeast 309 356 8,600 -1,080 Descending Houston Center
08:34PM 29.7994 -95.8517 40° Northeast 308 354 7,800 -720 Descending Houston Center
08:35PM 29.8553 -95.8025 37° Northeast 308 354 7,200 -780 Descending Houston Center
08:36PM 29.9350 -95.7319 37° Northeast 301 346 6,300 -780 Descending Houston Center
08:37PM 29.9819 -95.6739 47° Northeast 278 320 5,700 -780 Descending Houston Center
08:38PM 29.9939 -95.6075 78° East 211 243 4,900 -1,080 Descending Houston Center
08:39PM 29.9925 -95.5450 91° East 189 217 3,700 -1,200 Descending Houston Center